AR46 weather

Penrose Airport
Mc Crory, Arkansas, United States

Public forecast

Using degrees Fahrenheit for public forecast. Weather courtesy of forecast.io.

METAR (pilot weather report)

Closest report is Newport Regional Airport, 27.6 nm (51.2 km) NNW. Retrieved UTC (0 seconds ago):

TAF (pilot weather forecast)

Closest forecast is Jonesboro Municipal Airport, 43.3 nm (80.3 km) NNE. Retrieved 2019/09/16 12:22 UTC (3 hours ago):

TAF KJBR 161120Z 1612/1712 00000KT P6SM SKC FM161700 VRB04KT P6SM FEW060 FM170000 VRB03KT P6SM SKC